Time;durP1;ratioP1;P1;durP2;ratioP2;P2;SDS_P1;SDS_P2;PMS_P1;PMS_P2;Temp;Humidity;BMP_temperature;BMP_pressure;BME280_temperature;BME280_humidity;BME280_pressure;Samples;Min_cycle;Max_cycle;Signal;HPM_P1;HPM_P2
2022/12/06 00:01:19;;;;;;;25.03;10.90;;;;;;;7.90;nan;-24037.63;5032181;28;20249;-73
2022/12/06 00:03:46;;;;;;;17.97;8.83;;;;;;;7.96;nan;-24039.44;5032247;28;20211;-73
2022/12/06 00:06:14;;;;;;;22.70;10.10;;;;;;;8.10;nan;-24043.13;5030375;28;20214;-73
2022/12/06 00:08:40;;;;;;;19.87;9.70;;;;;;;8.10;nan;-24043.13;5031698;28;20185;-74
2022/12/06 00:11:11;;;;;;;20.65;10.57;;;;;;;8.09;nan;-24043.00;5031666;28;20258;-74
2022/12/06 00:13:38;;;;;;;17.30;8.82;;;;;;;8.07;nan;-24042.44;5031822;28;20163;-74
2022/12/06 00:16:09;;;;;;;20.07;9.03;;;;;;;8.07;nan;-24042.44;5030136;28;20207;-74
2022/12/06 00:18:36;;;;;;;21.53;9.40;;;;;;;8.03;nan;-24041.16;5031936;28;20183;-74
2022/12/06 00:21:09;;;;;;;22.70;9.52;;;;;;;7.74;nan;-24033.22;5031617;28;20332;-74
2022/12/06 00:23:37;;;;;;;22.77;8.70;;;;;;;7.93;nan;-24038.59;5030110;28;20238;-74
2022/12/06 00:26:02;;;;;;;24.97;9.97;;;;;;;7.77;nan;-24034.06;5031691;28;20230;-73
2022/12/06 00:28:28;;;;;;;23.97;9.53;;;;;;;7.70;nan;-24032.09;5031194;28;20647;-74
2022/12/06 00:31:02;;;;;;;21.40;8.77;;;;;;;7.71;nan;-24032.22;5031020;28;20174;-74
2022/12/06 00:33:28;;;;;;;18.10;9.70;;;;;;;8.12;nan;-24043.69;5029941;28;20179;-74
2022/12/06 00:35:55;;;;;;;22.63;10.13;;;;;;;7.99;nan;-24040.16;5031353;28;20186;-73
2022/12/06 00:38:20;;;;;;;17.30;8.48;;;;;;;8.11;nan;-24043.56;5031001;28;20187;-74
2022/12/06 00:40:46;;;;;;;22.42;9.57;;;;;;;8.13;nan;-24044.13;5031691;28;20193;-74
2022/12/06 00:43:11;;;;;;;21.50;9.80;;;;;;;8.02;nan;-24040.88;5029824;28;20226;-74
2022/12/06 00:45:36;;;;;;;22.70;9.25;;;;;;;7.74;nan;-24033.06;5031245;28;20650;-74
2022/12/06 00:48:02;;;;;;;18.50;8.23;;;;;;;8.08;nan;-24042.56;5031512;28;20179;-74
2022/12/06 00:50:27;;;;;;;17.37;8.63;;;;;;;7.71;nan;-24032.22;5031691;28;20701;-74
2022/12/06 00:52:53;;;;;;;20.23;9.82;;;;;;;7.90;nan;-24037.63;5031329;28;20584;-73
2022/12/06 00:55:18;;;;;;;22.38;10.18;;;;;;;7.63;nan;-24030.09;5031084;28;20167;-74
2022/12/06 00:57:44;;;;;;;21.83;9.07;;;;;;;7.77;nan;-24034.06;5031282;28;20179;-74
2022/12/06 01:00:10;;;;;;;19.33;8.70;;;;;;;7.81;nan;-24035.22;5031335;28;20650;-75
2022/12/06 01:02:35;;;;;;;24.97;10.47;;;;;;;7.61;nan;-24029.53;5029507;28;20258;-72
2022/12/06 01:05:00;;;;;;;22.47;10.47;;;;;;;7.63;nan;-24029.97;5036763;28;20639;-74
2022/12/06 01:07:26;;;;;;;21.57;9.90;;;;;;;7.58;nan;-24028.53;5034914;28;20216;-72
2022/12/06 01:09:51;;;;;;;17.17;8.50;;;;;;;7.63;nan;-24030.09;5032977;28;20195;-73
2022/12/06 01:12:16;;;;;;;17.37;9.57;;;;;;;7.89;nan;-24037.31;5034107;28;20191;-73
2022/12/06 01:14:42;;;;;;;20.97;9.40;;;;;;;7.53;nan;-24027.28;5037378;28;20194;-74
2022/12/06 01:17:07;;;;;;;17.20;9.53;;;;;;;7.75;nan;-24033.50;5034788;28;20636;-73
2022/12/06 01:19:33;;;;;;;17.80;9.07;;;;;;;7.85;nan;-24036.19;5034496;28;20175;-75
2022/12/06 01:21:58;;;;;;;25.70;9.47;;;;;;;7.88;nan;-24037.19;5034479;28;20183;-74
2022/12/06 01:24:23;;;;;;;23.23;9.20;;;;;;;7.96;nan;-24039.31;5034833;28;20632;-73
2022/12/06 01:26:49;;;;;;;17.43;9.00;;;;;;;7.84;nan;-24035.91;5034478;28;20562;-74
2022/12/06 01:29:14;;;;;;;19.87;8.23;;;;;;;7.91;nan;-24037.88;5034425;28;20268;-74
2022/12/06 01:31:40;;;;;;;14.43;9.13;;;;;;;7.79;nan;-24034.50;5034419;28;20519;-73
2022/12/06 01:34:12;;;;;;;18.70;8.13;;;;;;;8.06;nan;-24042.16;5033901;28;20179;-74
2022/12/06 01:36:37;;;;;;;23.50;9.23;;;;;;;8.00;nan;-24040.44;5034125;28;20187;-74
2022/12/06 01:39:05;;;;;;;21.03;8.93;;;;;;;7.86;nan;-24036.47;5033099;28;20270;-74
2022/12/06 01:41:30;;;;;;;19.87;8.50;;;;;;;8.02;nan;-24041.00;5033971;28;20203;-74
2022/12/06 01:43:57;;;;;;;16.33;8.53;;;;;;;7.85;nan;-24036.19;5032630;28;20312;-74
2022/12/06 01:46:40;;;;;;;17.80;9.20;;;;;;;8.04;nan;-24041.56;5034018;28;20194;-74
2022/12/06 01:49:10;;;;;;;23.53;10.03;;;;;;;7.66;nan;-24030.81;5037489;28;20194;-74
2022/12/06 01:51:37;;;;;;;17.55;8.20;;;;;;;8.18;nan;-24045.41;5035166;28;20179;-75
2022/12/06 01:54:07;;;;;;;23.60;9.20;;;;;;;7.98;nan;-24040.03;5033610;28;20179;-74
2022/12/06 01:56:34;;;;;;;20.13;9.17;;;;;;;7.86;nan;-24036.63;5033577;28;20577;-74
2022/12/06 01:59:00;;;;;;;21.10;9.07;;;;;;;7.85;nan;-24036.34;5035292;28;20250;-73
2022/12/06 02:01:27;;;;;;;19.93;8.73;;;;;;;7.53;nan;-24027.41;5042367;28;20234;-73
2022/12/06 02:03:55;;;;;;;16.93;9.17;;;;;;;7.45;nan;-24025.00;5038842;28;20206;-74
2022/12/06 02:06:21;;;;;;;22.10;8.17;;;;;;;7.53;nan;-24027.41;5032563;28;20198;-74
2022/12/06 02:08:47;;;;;;;24.17;9.93;;;;;;;7.58;nan;-24028.69;5033525;28;20159;-72
2022/12/06 02:11:13;;;;;;;20.53;8.77;;;;;;;7.87;nan;-24036.75;5033841;28;20168;-73
2022/12/06 02:13:40;;;;;;;16.37;8.23;;;;;;;7.86;nan;-24036.47;5032480;28;20242;-72
2022/12/06 02:16:26;;;;;;;17.00;8.20;;;;;;;7.57;nan;-24028.41;5033634;28;20647;-73
2022/12/06 02:18:59;;;;;;;22.93;10.13;;;;;;;7.81;nan;-24035.22;5033139;28;20199;-74
2022/12/06 02:21:41;;;;;;;16.37;8.17;;;;;;;7.53;nan;-24027.28;5033267;28;20176;-74
2022/12/06 02:24:19;;;;;;;19.23;8.75;;;;;;;7.88;nan;-24037.19;5032006;28;20226;-74
2022/12/06 02:26:48;;;;;;;22.83;10.33;;;;;;;7.97;nan;-24039.59;5035759;28;20190;-74
2022/12/06 02:29:25;;;;;;;19.00;9.17;;;;;;;7.99;nan;-24040.31;5031360;28;20269;-74
2022/12/06 02:32:33;;;;;;;18.67;8.10;;;;;;;7.99;nan;-24040.31;5032866;28;20202;-74
2022/12/06 02:35:08;;;;;;;18.60;9.47;;;;;;;7.61;nan;-24029.53;5021821;28;20199;-74
2022/12/06 02:37:57;;;;;;;16.30;7.93;;;;;;;7.92;nan;-24038.31;5031316;28;20233;-74
2022/12/06 02:40:31;;;;;;;19.57;9.00;;;;;;;7.89;nan;-24037.31;5032367;28;20203;-73
2022/12/06 02:43:07;;;;;;;12.63;6.67;;;;;;;7.70;nan;-24031.94;5031278;28;20199;-72
2022/12/06 02:45:39;;;;;;;21.65;9.82;;;;;;;7.71;nan;-24032.38;5032874;28;20178;-74
2022/12/06 02:48:08;;;;;;;18.02;9.90;;;;;;;8.02;nan;-24040.88;5032052;28;20678;-72
2022/12/06 02:50:45;;;;;;;15.67;7.60;;;;;;;7.67;nan;-24031.25;5032583;28;20683;-73
2022/12/06 02:53:15;;;;;;;23.50;8.82;;;;;;;7.65;nan;-24030.53;5032745;28;20178;-73
2022/12/06 02:55:42;;;;;;;18.13;8.27;;;;;;;7.63;nan;-24030.09;5032775;28;20179;-73
2022/12/06 02:58:08;;;;;;;22.30;10.10;;;;;;;7.61;nan;-24029.53;5033159;28;20646;-74
2022/12/06 03:00:40;;;;;;;21.10;10.23;;;;;;;7.57;nan;-24028.25;5032352;28;20251;-74
2022/12/06 03:03:17;;;;;;;17.53;9.20;;;;;;;7.64;nan;-24030.38;5037518;28;20235;-75
2022/12/06 03:06:01;;;;;;;20.83;10.23;;;;;;;7.84;nan;-24036.06;5015929;28;20190;-73
2022/12/06 03:08:48;;;;;;;22.30;10.07;;;;;;;7.89;nan;-24037.31;5032554;28;20663;-74
2022/12/06 03:11:14;;;;;;;23.93;10.00;;;;;;;7.46;nan;-24025.44;5032039;28;20258;-74
2022/12/06 03:13:58;;;;;;;15.03;8.97;;;;;;;7.89;nan;-24037.47;5032728;28;20186;-74
2022/12/06 03:16:29;;;;;;;19.47;9.17;;;;;;;7.81;nan;-24035.06;5032816;28;20212;-74
2022/12/06 03:19:02;;;;;;;18.27;8.83;;;;;;;7.70;nan;-24032.09;5032032;28;20194;-73
2022/12/06 03:21:37;;;;;;;20.00;9.40;;;;;;;7.49;nan;-24026.28;5032089;28;20247;-74
2022/12/06 03:24:09;;;;;;;18.47;8.67;;;;;;;7.82;nan;-24035.34;5032335;28;20553;-74
2022/12/06 03:26:37;;;;;;;22.13;9.57;;;;;;;7.74;nan;-24033.06;5032106;28;20175;-73
2022/12/06 03:29:05;;;;;;;17.50;8.87;;;;;;;7.84;nan;-24036.06;5032314;28;20333;-75
2022/12/06 03:31:34;;;;;;;16.37;8.87;;;;;;;7.47;nan;-24025.56;5032054;28;20191;-73
2022/12/06 03:34:13;;;;;;;17.77;9.17;;;;;;;7.42;nan;-24024.28;5031896;28;20623;-74
2022/12/06 03:36:41;;;;;;;23.73;9.60;;;;;;;7.77;nan;-24033.94;5032716;28;20175;-74
2022/12/06 03:39:07;;;;;;;21.13;9.63;;;;;;;7.79;nan;-24034.63;5035599;28;20186;-74
2022/12/06 03:41:43;;;;;;;21.77;9.10;;;;;;;7.72;nan;-24032.66;5032174;28;20183;-75
2022/12/06 03:44:09;;;;;;;21.07;10.23;;;;;;;7.28;nan;-24020.31;5031913;28;20202;-73
2022/12/06 03:46:40;;;;;;;23.07;8.93;;;;;;;7.43;nan;-24024.44;5031746;28;20248;-73
2022/12/06 03:49:29;;;;;;;27.47;9.47;;;;;;;7.41;nan;-24023.88;5032374;28;20163;-73
2022/12/06 03:51:55;;;;;;;25.40;9.90;;;;;;;7.67;nan;-24031.25;5032331;28;20229;-74
2022/12/06 03:54:20;;;;;;;19.73;9.87;;;;;;;7.38;nan;-24023.00;5032302;28;20569;-74
2022/12/06 03:56:45;;;;;;;22.20;10.63;;;;;;;7.66;nan;-24030.94;5030342;28;20602;-72
2022/12/06 03:59:11;;;;;;;25.27;9.77;;;;;;;7.58;nan;-24028.69;5031753;28;20612;-74
2022/12/06 04:01:37;;;;;;;18.97;9.43;;;;;;;7.14;nan;-24016.22;5030868;28;20190;-74
2022/12/06 04:04:03;;;;;;;18.30;9.30;;;;;;;7.39;nan;-24023.44;5031943;28;20230;-74
2022/12/06 04:06:29;;;;;;;20.50;9.33;;;;;;;7.24;nan;-24019.03;5030774;28;20556;-74
2022/12/06 04:09:51;;;;;;;19.67;8.77;;;;;;;7.31;nan;-24021.03;5030353;28;20175;-74
2022/12/06 04:11:40;;;;;;;16.83;9.13;;;;;;;7.54;nan;-24027.69;5031381;28;20264;-74
2022/12/06 04:14:05;;;;;;;18.97;8.97;;;;;;;7.44;nan;-24024.88;5032089;28;20253;-75
2022/12/06 04:19:14;;;;;;;14.63;7.50;;;;;;;7.13;nan;-24016.06;5033805;28;20190;-74
2022/12/06 04:24:24;;;;;;;13.70;8.47;;;;;;;7.61;nan;-24029.53;5034621;28;20241;-74
2022/12/06 04:26:49;;;;;;;13.70;7.47;;;;;;;7.33;nan;-24021.75;5035184;28;20211;-74
2022/12/06 04:40:10;;;;;;;17.97;9.03;;;;;;;7.65;nan;-24030.53;5038476;28;20685;-74
2022/12/06 04:45:20;;;;;;;12.53;7.33;;;;;;;7.78;nan;-24034.34;5038443;28;20597;-74
2022/12/06 04:47:45;;;;;;;21.20;9.63;;;;;;;7.44;nan;-24024.72;5037547;28;20181;-74
2022/12/06 04:50:11;;;;;;;15.83;7.87;;;;;;;7.33;nan;-24021.75;5038615;28;20279;-74
2022/12/06 04:52:36;;;;;;;15.70;9.33;;;;;;;7.31;nan;-24021.16;5038267;28;20178;-75
2022/12/06 04:55:03;;;;;;;18.73;7.97;;;;;;;7.67;nan;-24031.25;5037307;28;20275;-74
2022/12/06 04:57:28;;;;;;;19.93;8.47;;;;;;;7.52;nan;-24026.97;5036492;28;20622;-75
2022/12/06 04:59:54;;;;;;;18.20;7.60;;;;;;;7.29;nan;-24020.47;5036661;28;20186;-72
2022/12/06 05:02:20;;;;;;;15.83;7.07;;;;;;;7.25;nan;-24019.34;5037832;28;20246;-74
2022/12/06 05:04:45;;;;;;;13.77;7.83;;;;;;;7.65;nan;-24030.66;5037584;28;20191;-74
2022/12/06 05:07:10;;;;;;;19.47;7.03;;;;;;;7.47;nan;-24025.56;5035874;28;20198;-74
2022/12/06 05:09:36;;;;;;;15.53;7.23;;;;;;;7.32;nan;-24021.31;5034686;28;20814;-75
2022/12/06 05:12:02;;;;;;;11.77;6.93;;;;;;;7.04;nan;-24013.50;5043805;28;20191;-74
2022/12/06 05:14:27;;;;;;;16.70;7.27;;;;;;;7.36;nan;-24022.44;5036968;28;20659;-75
2022/12/06 05:16:53;;;;;;;14.60;6.87;;;;;;;7.31;nan;-24021.16;5040490;28;20658;-74
2022/12/06 05:19:18;;;;;;;12.40;6.87;;;;;;;7.49;nan;-24026.28;5034012;28;20179;-73
2022/12/06 05:21:43;;;;;;;15.60;6.40;;;;;;;7.64;nan;-24030.38;5035234;28;20232;-73
2022/12/06 05:24:09;;;;;;;12.00;6.13;;;;;;;7.22;nan;-24018.63;5032739;28;20538;-74
2022/12/06 05:26:34;;;;;;;11.87;6.87;;;;;;;7.60;nan;-24029.09;5033487;28;20631;-75
2022/12/06 05:29:00;;;;;;;11.57;5.80;;;;;;;7.57;nan;-24028.41;5032593;28;20190;-74
2022/12/06 05:31:26;;;;;;;8.23;5.53;;;;;;;7.57;nan;-24028.41;5034448;28;20187;-74
2022/12/06 05:33:52;;;;;;;12.13;5.83;;;;;;;7.21;nan;-24018.19;5034286;28;20720;-74
2022/12/06 05:36:23;;;;;;;10.70;6.03;;;;;;;7.21;nan;-24018.19;5034145;28;20176;-74
2022/12/06 05:38:50;;;;;;;12.03;6.60;;;;;;;7.56;nan;-24028.13;5034258;28;20175;-73
2022/12/06 05:41:16;;;;;;;14.57;6.80;;;;;;;7.48;nan;-24025.84;5034344;28;20183;-74
2022/12/06 05:43:41;;;;;;;15.83;7.43;;;;;;;7.52;nan;-24026.97;5032823;28;20745;-74
2022/12/06 05:46:07;;;;;;;11.97;6.63;;;;;;;7.12;nan;-24015.78;5039768;28;20172;-73
2022/12/06 05:48:32;;;;;;;12.37;7.60;;;;;;;7.66;nan;-24030.94;5038119;28;20171;-74
2022/12/06 05:50:58;;;;;;;16.53;8.27;;;;;;;7.30;nan;-24020.75;5034102;28;20701;-75
2022/12/06 05:53:24;;;;;;;16.80;7.63;;;;;;;7.47;nan;-24025.56;5033890;28;20258;-74
2022/12/06 05:55:49;;;;;;;16.07;6.80;;;;;;;7.63;nan;-24030.09;5031449;28;20547;-75
2022/12/06 05:58:16;;;;;;;16.70;7.60;;;;;;;7.46;nan;-24025.44;5033334;28;20170;-74
2022/12/06 06:00:46;;;;;;;12.50;7.03;;;;;;;7.28;nan;-24020.19;5033282;28;20164;-74
2022/12/06 06:03:11;;;;;;;16.73;6.67;;;;;;;7.66;nan;-24030.94;5032219;28;20226;-75
2022/12/06 06:05:37;;;;;;;14.83;7.10;;;;;;;7.48;nan;-24026.00;5033239;28;20179;-74
2022/12/06 06:08:02;;;;;;;19.10;7.97;;;;;;;7.75;nan;-24033.50;5031847;28;20218;-75
2022/12/06 06:10:27;;;;;;;15.33;6.50;;;;;;;7.24;nan;-24019.03;5032933;28;20572;-75
2022/12/06 06:12:53;;;;;;;10.00;6.50;;;;;;;7.04;nan;-24013.66;5032075;28;20202;-75
2022/12/06 06:15:18;;;;;;;16.50;7.83;;;;;;;7.67;nan;-24031.25;5032726;28;20171;-74
2022/12/06 06:17:44;;;;;;;18.83;8.47;;;;;;;7.39;nan;-24023.31;5031508;28;20190;-73
2022/12/06 06:20:12;;;;;;;18.23;7.90;;;;;;;7.80;nan;-24034.91;5031708;28;20179;-76
2022/12/06 06:22:39;;;;;;;16.00;7.63;;;;;;;7.64;nan;-24030.25;5033128;28;20211;-77
2022/12/06 06:25:05;;;;;;;14.40;7.73;;;;;;;7.51;nan;-24026.69;5033764;28;20175;-78
2022/12/06 06:27:32;;;;;;;17.93;7.37;;;;;;;7.61;nan;-24029.53;5033262;28;20215;-75
2022/12/06 06:29:58;;;;;;;13.70;7.80;;;;;;;8.03;nan;-24041.28;5032822;28;20721;-75
2022/12/06 06:32:23;;;;;;;12.10;7.67;;;;;;;8.09;nan;-24043.00;5033131;28;20266;-74
2022/12/06 06:34:49;;;;;;;18.17;8.83;;;;;;;8.17;nan;-24045.13;5032488;28;20171;-74
2022/12/06 06:37:14;;;;;;;17.80;7.10;;;;;;;7.84;nan;-24035.91;5032420;28;20179;-74
2022/12/06 06:39:40;;;;;;;17.80;8.67;;;;;;;7.96;nan;-24039.44;5032843;28;20705;-75
2022/12/06 06:42:05;;;;;;;12.27;6.90;;;;;;;8.06;nan;-24042.00;5032586;28;20214;-74
2022/12/06 06:44:31;;;;;;;17.93;8.40;;;;;;;8.35;nan;-24050.22;5032788;28;20176;-75
2022/12/06 06:46:57;;;;;;;14.27;7.27;;;;;;;8.46;nan;-24053.19;5031297;28;20191;-74
2022/12/06 06:49:23;;;;;;;18.67;8.00;;;;;;;8.14;nan;-24044.28;5032926;28;20234;-75
2022/12/06 06:51:49;;;;;;;15.23;8.27;;;;;;;8.65;nan;-24058.72;5030636;28;20183;-76
2022/12/06 06:54:15;;;;;;;11.37;7.27;;;;;;;8.72;nan;-24060.56;5032283;28;20649;-75
2022/12/06 06:56:40;;;;;;;17.33;8.00;;;;;;;8.61;nan;-24057.56;5032451;28;20183;-75
2022/12/06 06:59:06;;;;;;;15.97;7.83;;;;;;;8.63;nan;-24058.16;5032003;28;20627;-75
2022/12/06 07:01:31;;;;;;;20.30;9.03;;;;;;;8.69;nan;-24059.69;5031392;28;20172;-75
2022/12/06 07:03:57;;;;;;;22.03;8.43;;;;;;;8.59;nan;-24057.00;5031931;28;20202;-74
2022/12/06 07:06:22;;;;;;;17.20;8.87;;;;;;;8.61;nan;-24057.44;5032223;28;20175;-74
2022/12/06 07:08:48;;;;;;;17.00;7.90;;;;;;;8.37;nan;-24050.78;5030739;28;20692;-73
2022/12/06 07:11:14;;;;;;;19.53;9.13;;;;;;;8.72;nan;-24060.56;5032223;28;20187;-75
2022/12/06 07:13:41;;;;;;;17.07;8.33;;;;;;;8.59;nan;-24057.00;5031248;28;20187;-74
2022/12/06 07:16:11;;;;;;;22.07;8.27;;;;;;;8.97;nan;-24067.47;5032003;28;20175;-75
2022/12/06 07:18:37;;;;;;;13.37;7.77;;;;;;;8.87;nan;-24064.78;5031830;28;20309;-74
2022/12/06 07:21:05;;;;;;;22.33;9.90;;;;;;;9.08;nan;-24070.72;5030550;28;20262;-73
2022/12/06 07:23:34;;;;;;;23.17;9.40;;;;;;;9.24;nan;-24075.13;5032276;28;20207;-73
2022/12/06 07:26:10;;;;;;;19.08;8.35;;;;;;;8.84;nan;-24064.09;5032376;28;20657;-74
2022/12/06 07:28:37;;;;;;;19.77;9.30;;;;;;;9.04;nan;-24069.47;5032258;28;20179;-72
2022/12/06 07:31:14;;;;;;;20.00;8.48;;;;;;;9.45;nan;-24081.06;5032230;28;20167;-75
2022/12/06 07:33:41;;;;;;;20.17;9.60;;;;;;;9.30;nan;-24076.81;5031869;28;20171;-73
2022/12/06 07:36:07;;;;;;;17.83;9.18;;;;;;;9.31;nan;-24077.09;5032212;28;20635;-74
2022/12/06 07:38:33;;;;;;;16.30;9.30;;;;;;;9.53;nan;-24083.16;5031911;28;20651;-74
2022/12/06 07:44:59;;;;;;;21.05;8.98;;;;;;;9.28;nan;-24076.25;5032307;28;20210;-73
2022/12/06 07:46:32;;;;;;;18.38;9.02;;;;;;;10.06;nan;-24098.00;5031893;28;20194;-74
2022/12/06 07:48:57;;;;;;;22.13;7.90;;;;;;;9.90;nan;-24093.63;5031802;28;20554;-73
2022/12/06 07:51:22;;;;;;;19.73;9.70;;;;;;;9.90;nan;-24093.47;5031665;28;20235;-73
2022/12/06 07:53:48;;;;;;;24.13;8.75;;;;;;;9.80;nan;-24090.81;5031394;28;20175;-73
2022/12/06 07:56:13;;;;;;;17.80;8.90;;;;;;;9.89;nan;-24093.34;5031846;28;20167;-74
2022/12/06 07:58:40;;;;;;;19.33;8.90;;;;;;;10.15;nan;-24100.53;5029816;28;20241;-74
2022/12/06 08:01:05;;;;;;;19.25;9.18;;;;;;;9.83;nan;-24091.50;5031748;28;20233;-74
2022/12/06 08:03:30;;;;;;;19.27;8.73;;;;;;;9.75;nan;-24089.38;5029943;28;20235;-74
2022/12/06 08:05:56;;;;;;;18.88;9.82;;;;;;;10.14;nan;-24100.41;5031261;28;20182;-75
2022/12/06 08:08:21;;;;;;;20.98;9.07;;;;;;;10.31;nan;-24104.94;5031692;28;20163;-73
2022/12/06 08:10:47;;;;;;;21.92;8.68;;;;;;;9.81;nan;-24090.94;5032429;28;20664;-74
2022/12/06 08:13:12;;;;;;;16.90;8.73;;;;;;;9.88;nan;-24093.06;5035923;28;20175;-74
2022/12/06 08:15:38;;;;;;;20.20;8.77;;;;;;;9.69;nan;-24087.69;5035790;28;20186;-74
2022/12/06 08:18:04;;;;;;;19.40;8.77;;;;;;;9.69;nan;-24087.69;5034322;28;20657;-74
2022/12/06 08:20:29;;;;;;;25.90;8.98;;;;;;;9.75;nan;-24089.53;5035322;28;20250;-73
2022/12/06 08:22:55;;;;;;;18.48;8.70;;;;;;;10.09;nan;-24098.84;5035267;28;20309;-74
2022/12/06 08:25:20;;;;;;;16.48;7.40;;;;;;;10.33;nan;-24105.63;5033819;28;20206;-74
2022/12/06 08:27:46;;;;;;;18.73;8.93;;;;;;;10.75;nan;-24117.34;5034933;28;20175;-74
2022/12/06 08:30:11;;;;;;;19.30;8.30;;;;;;;10.29;nan;-24104.38;5035805;28;20164;-75
2022/12/06 08:32:36;;;;;;;25.90;9.07;;;;;;;10.84;nan;-24119.88;5034323;28;20608;-73
2022/12/06 08:35:02;;;;;;;19.98;8.48;;;;;;;10.47;nan;-24109.59;5035540;28;20537;-73
2022/12/06 08:37:27;;;;;;;15.43;7.05;;;;;;;10.86;nan;-24120.31;5035236;28;20179;-74
2022/12/06 08:39:53;;;;;;;17.23;7.68;;;;;;;10.19;nan;-24101.69;5034920;28;20160;-74
2022/12/06 08:42:19;;;;;;;19.88;7.70;;;;;;;10.78;nan;-24118.19;5034510;28;20172;-72
2022/12/06 08:44:44;;;;;;;19.58;8.43;;;;;;;10.73;nan;-24116.78;5033832;28;20258;-74
2022/12/06 08:47:10;;;;;;;13.40;7.40;;;;;;;10.67;nan;-24114.94;5033413;28;20596;-74
2022/12/06 08:49:35;;;;;;;18.27;8.55;;;;;;;10.87;nan;-24120.72;5035192;28;20225;-75
2022/12/06 08:52:01;;;;;;;15.60;7.53;;;;;;;10.61;nan;-24113.53;5034771;28;20250;-75
2022/12/06 08:54:27;;;;;;;18.83;6.97;;;;;;;10.74;nan;-24117.06;5034719;28;20163;-73
2022/12/06 08:56:52;;;;;;;14.18;7.80;;;;;;;10.69;nan;-24115.66;5034442;28;20180;-73
2022/12/06 08:59:19;;;;;;;13.85;6.72;;;;;;;10.70;nan;-24115.78;5034319;28;20186;-74
2022/12/06 09:01:44;;;;;;;17.95;8.77;;;;;;;10.99;nan;-24124.13;5032961;28;20234;-74
2022/12/06 09:04:11;;;;;;;19.70;8.68;;;;;;;10.85;nan;-24120.16;5034884;28;20203;-77
2022/12/06 09:06:41;;;;;;;14.13;7.35;;;;;;;11.23;nan;-24130.75;5034787;28;20179;-73
2022/12/06 09:09:08;;;;;;;17.75;7.82;;;;;;;10.90;nan;-24121.44;5034572;28;20163;-74
2022/12/06 09:11:34;;;;;;;20.48;8.57;;;;;;;11.18;nan;-24129.19;5034944;28;20262;-74
2022/12/06 09:13:59;;;;;;;18.67;9.38;;;;;;;11.36;nan;-24134.25;5034848;28;20180;-74
2022/12/06 09:16:25;;;;;;;18.13;9.20;;;;;;;11.22;nan;-24130.47;5034985;28;20230;-74
2022/12/06 09:18:51;;;;;;;16.00;7.05;;;;;;;11.10;nan;-24126.94;5034404;28;20185;-75
2022/12/06 09:21:20;;;;;;;19.80;8.55;;;;;;;10.83;nan;-24119.59;5034849;28;20634;-74
2022/12/06 09:23:46;;;;;;;17.10;9.20;;;;;;;10.99;nan;-24123.97;5033818;28;20206;-73
2022/12/06 09:26:11;;;;;;;16.02;8.93;;;;;;;10.60;nan;-24113.13;5038497;28;20215;-74
2022/12/06 09:28:40;;;;;;;17.38;8.15;;;;;;;10.80;nan;-24118.75;5037299;28;20179;-73
2022/12/06 09:31:07;;;;;;;19.33;9.23;;;;;;;10.95;nan;-24122.84;5034227;28;20167;-73
2022/12/06 09:33:34;;;;;;;21.92;9.02;;;;;;;11.19;nan;-24129.47;5034440;28;20172;-73
2022/12/06 09:36:05;;;;;;;18.88;8.38;;;;;;;10.87;nan;-24120.72;5034264;28;20191;-74
2022/12/06 09:38:35;;;;;;;21.35;7.65;;;;;;;10.96;nan;-24123.13;5033668;28;20186;-73
2022/12/06 09:41:17;;;;;;;16.15;8.00;;;;;;;10.95;nan;-24122.84;5034098;28;20167;-75
2022/12/06 09:44:21;;;;;;;16.85;8.55;;;;;;;10.74;nan;-24116.91;5033866;28;20230;-74
2022/12/06 09:46:57;;;;;;;14.30;7.90;;;;;;;10.54;nan;-24111.56;5011024;28;20266;-73
2022/12/06 09:49:30;;;;;;;17.00;7.95;;;;;;;10.76;nan;-24117.47;5031407;28;20212;-74
2022/12/06 09:52:01;;;;;;;16.23;8.10;;;;;;;11.12;nan;-24127.63;5034150;28;20242;-74
2022/12/06 09:54:37;;;;;;;17.80;8.70;;;;;;;10.81;nan;-24119.03;5035495;28;20631;-74
2022/12/06 09:57:23;;;;;;;15.10;7.95;;;;;;;10.96;nan;-24123.13;5033605;28;20175;-74
2022/12/06 10:00:02;;;;;;;19.15;8.20;;;;;;;11.48;nan;-24137.78;5033685;28;20245;-73
2022/12/06 10:02:57;;;;;;;17.17;7.57;;;;;;;11.64;nan;-24142.00;5031895;28;20697;-74
2022/12/06 10:05:49;;;;;;;11.63;5.95;;;;;;;12.09;nan;-24154.69;5013157;28;20196;-73
2022/12/06 10:08:31;;;;;;;11.63;5.43;;;;;;;11.96;nan;-24151.03;5012252;28;20226;-74
2022/12/06 10:11:06;;;;;;;12.70;6.35;;;;;;;11.90;nan;-24149.34;5013078;28;20164;-73
2022/12/06 10:13:47;;;;;;;14.98;6.60;;;;;;;11.69;nan;-24143.41;5013402;28;20187;-73
2022/12/06 10:16:44;;;;;;;14.45;7.03;;;;;;;11.52;nan;-24138.78;5028024;28;20171;-75
2022/12/06 10:19:33;;;;;;;15.68;6.25;;;;;;;11.77;nan;-24145.69;5013435;28;20191;-75
2022/12/06 10:22:03;;;;;;;12.40;6.00;;;;;;;11.90;nan;-24149.34;5033170;28;20187;-74
2022/12/06 10:24:47;;;;;;;18.00;7.10;;;;;;;11.89;nan;-24149.06;5032054;28;20261;-75
2022/12/06 10:27:36;;;;;;;16.52;6.60;;;;;;;12.08;nan;-24154.41;5031226;28;20286;-73
2022/12/06 10:30:04;;;;;;;16.65;7.45;;;;;;;11.85;nan;-24147.94;5032864;28;20178;-75
2022/12/06 10:32:41;;;;;;;21.92;8.57;;;;;;;11.51;nan;-24138.63;5031084;28;20183;-73
2022/12/06 10:35:26;;;;;;;16.55;7.38;;;;;;;11.50;nan;-24138.22;5031419;28;20167;-74
2022/12/06 10:38:04;;;;;;;17.95;7.53;;;;;;;11.37;nan;-24134.69;5030284;28;20206;-74
2022/12/06 10:40:54;;;;;;;17.92;8.52;;;;;;;11.49;nan;-24138.06;5032371;28;20280;-73
2022/12/06 10:43:28;;;;;;;12.65;6.75;;;;;;;10.92;nan;-24122.13;5031944;28;20199;-74
2022/12/06 10:48:58;;;;;;;17.60;8.13;;;;;;;11.04;nan;-24125.38;5031953;28;20660;-75
2022/12/06 10:51:40;;;;;;;15.40;7.38;;;;;;;10.71;nan;-24116.22;5032506;28;20596;-75
2022/12/06 10:54:20;;;;;;;16.40;8.60;;;;;;;10.72;nan;-24116.34;5031634;28;20163;-75
2022/12/06 10:56:48;;;;;;;15.05;7.13;;;;;;;10.41;nan;-24107.88;5031758;28;20181;-74
2022/12/06 10:59:26;;;;;;;17.45;7.18;;;;;;;10.62;nan;-24113.69;5031948;28;20180;-74
2022/12/06 11:01:55;;;;;;;12.20;7.05;;;;;;;10.79;nan;-24118.47;5031592;28;20214;-74
2022/12/06 11:04:30;;;;;;;14.20;7.32;;;;;;;10.83;nan;-24119.47;5031348;28;20202;-74
2022/12/06 11:07:01;;;;;;;18.38;8.15;;;;;;;11.21;nan;-24130.03;5031805;28;20196;-74
2022/12/06 11:09:38;;;;;;;16.15;7.57;;;;;;;11.38;nan;-24134.97;5032027;28;20167;-73
2022/12/06 11:12:22;;;;;;;13.43;6.18;;;;;;;11.40;nan;-24135.38;5031990;28;20186;-73
2022/12/06 11:14:53;;;;;;;16.60;7.68;;;;;;;11.28;nan;-24132.16;5031647;28;20194;-74
2022/12/06 11:17:24;;;;;;;13.93;6.80;;;;;;;11.49;nan;-24137.94;5031733;28;20720;-74
2022/12/06 11:19:55;;;;;;;11.70;6.55;;;;;;;10.68;nan;-24115.22;5032058;28;20183;-73
2022/12/06 11:22:39;;;;;;;16.45;6.47;;;;;;;11.70;nan;-24143.84;5031910;28;20175;-74
2022/12/06 11:25:08;;;;;;;12.55;6.65;;;;;;;11.57;nan;-24140.03;5031008;28;20159;-74
2022/12/06 11:27:41;;;;;;;16.77;7.00;;;;;;;11.26;nan;-24131.44;5030571;28;20175;-75
2022/12/06 11:30:16;;;;;;;11.32;6.50;;;;;;;11.14;nan;-24128.19;5031247;28;20167;-75
2022/12/06 11:32:43;;;;;;;16.88;7.60;;;;;;;10.70;nan;-24115.78;5031419;28;20187;-74
2022/12/06 11:35:17;;;;;;;14.43;6.80;;;;;;;11.11;nan;-24127.22;5029942;28;20567;-74
2022/12/06 11:37:44;;;;;;;21.40;8.82;;;;;;;11.16;nan;-24128.75;5031157;28;20171;-73
2022/12/06 11:40:19;;;;;;;20.42;7.88;;;;;;;11.63;nan;-24141.88;5029732;28;20684;-74
2022/12/06 11:42:45;;;;;;;22.20;10.25;;;;;;;11.55;nan;-24139.47;5030980;28;20198;-73
2022/12/06 11:45:30;;;;;;;16.48;8.10;;;;;;;11.25;nan;-24131.16;5030673;28;20573;-74
2022/12/06 11:47:58;;;;;;;21.02;8.00;;;;;;;11.61;nan;-24141.31;5030979;28;20638;-75
2022/12/06 11:50:27;;;;;;;19.60;7.82;;;;;;;11.60;nan;-24141.03;5029616;28;20262;-74
2022/12/06 11:52:56;;;;;;;19.88;7.60;;;;;;;11.59;nan;-24140.59;5031340;28;20163;-73
2022/12/06 11:55:26;;;;;;;16.05;8.38;;;;;;;11.62;nan;-24141.44;5030927;28;20191;-73
2022/12/06 11:58:00;;;;;;;18.13;8.38;;;;;;;11.36;nan;-24134.41;5031212;28;20201;-74
2022/12/06 12:00:27;;;;;;;18.88;7.82;;;;;;;11.94;nan;-24150.59;5031386;28;20652;-75
2022/12/06 12:02:54;;;;;;;12.13;7.13;;;;;;;11.73;nan;-24144.69;5030732;28;20227;-75
2022/12/06 12:05:24;;;;;;;18.17;7.20;;;;;;;11.74;nan;-24144.84;5030201;28;20227;-74
2022/12/06 12:07:58;;;;;;;16.33;7.78;;;;;;;11.78;nan;-24146.09;5030105;28;20210;-75
2022/12/06 12:10:26;;;;;;;14.18;6.85;;;;;;;11.48;nan;-24137.78;5031200;28;20716;-73
2022/12/06 12:15:46;;;;;;;15.25;6.70;;;;;;;11.83;nan;-24147.50;5030987;28;20226;-74
2022/12/06 12:18:23;;;;;;;20.27;6.63;;;;;;;11.63;nan;-24141.88;5031042;28;20631;-75